createdAt,value
2024-04-13T00:02:23.586Z,7.47
2024-04-13T00:04:51.799Z,6.88
2024-04-13T00:07:20.097Z,8.13
2024-04-13T00:09:47.070Z,5.30
2024-04-13T00:12:14.247Z,5.22
2024-04-13T00:14:41.256Z,7.40
2024-04-13T00:17:08.930Z,7.15
2024-04-13T00:19:37.227Z,5.75
2024-04-13T00:22:05.830Z,7.35
2024-04-13T00:24:33.795Z,9.30
2024-04-13T00:27:02.592Z,6.40
2024-04-13T00:29:30.496Z,9.00
2024-04-13T00:31:58.473Z,7.75
2024-04-13T00:34:25.607Z,7.10
2024-04-13T00:36:52.602Z,6.78
2024-04-13T00:39:20.419Z,7.90
2024-04-13T00:41:48.036Z,7.00
2024-04-13T00:44:15.031Z,7.57
2024-04-13T00:46:43.959Z,6.00
2024-04-13T00:49:21.022Z,7.05
2024-04-13T00:51:50.085Z,6.38
2024-04-13T00:54:19.898Z,8.27
2024-04-13T00:56:51.665Z,7.18
2024-04-13T00:59:24.043Z,7.10
2024-04-13T01:01:53.563Z,10.00
2024-04-13T01:04:22.668Z,9.32
2024-04-13T01:06:53.272Z,7.97
2024-04-13T01:09:21.616Z,11.35
2024-04-13T01:11:49.160Z,6.53
2024-04-13T01:14:16.442Z,6.93
2024-04-13T01:16:45.229Z,7.25
2024-04-13T01:19:13.225Z,9.90
2024-04-13T01:21:41.120Z,8.63
2024-04-13T01:24:09.152Z,7.28
2024-04-13T01:26:40.497Z,8.90
2024-04-13T01:29:08.445Z,8.93
2024-04-13T01:31:37.669Z,6.72
2024-04-13T01:34:05.379Z,6.03
2024-04-13T01:36:50.432Z,7.05
2024-04-13T01:39:17.543Z,7.32
2024-04-13T01:41:52.833Z,8.25
2024-04-13T01:44:20.084Z,7.00
2024-04-13T01:46:47.286Z,6.25
2024-04-13T01:49:14.289Z,7.95
2024-04-13T01:51:41.362Z,6.22
2024-04-13T01:54:08.611Z,7.82
2024-04-13T01:56:35.632Z,8.80
2024-04-13T01:59:02.585Z,5.82
2024-04-13T02:01:32.198Z,8.25
2024-04-13T02:03:59.386Z,7.72
2024-04-13T02:06:26.575Z,8.75
2024-04-13T02:08:54.755Z,6.65
2024-04-13T02:13:50.257Z,6.20
2024-04-13T02:16:17.206Z,8.38
2024-04-13T02:18:44.252Z,7.22
2024-04-13T02:21:11.325Z,7.85
2024-04-13T02:23:38.734Z,6.88
2024-04-13T02:26:08.971Z,7.07
2024-04-13T02:28:36.342Z,9.40
2024-04-13T02:31:03.417Z,7.30
2024-04-13T02:33:30.563Z,5.93
2024-04-13T02:36:05.120Z,6.03
2024-04-13T02:38:33.920Z,5.60
2024-04-13T02:41:01.843Z,10.30
2024-04-13T02:43:32.373Z,5.95
2024-04-13T02:46:06.140Z,10.55
2024-04-13T02:51:00.455Z,6.25
2024-04-13T02:53:27.498Z,6.03
2024-04-13T02:55:54.445Z,11.77
2024-04-13T02:58:21.428Z,8.38
2024-04-13T03:00:59.271Z,6.43
2024-04-13T03:03:29.879Z,6.63
2024-04-13T03:06:04.926Z,11.00
2024-04-13T03:08:32.464Z,6.90
2024-04-13T03:11:02.043Z,8.02
2024-04-13T03:13:30.549Z,7.63
2024-04-13T03:16:01.146Z,7.60
2024-04-13T03:18:28.293Z,6.47
2024-04-13T03:20:55.565Z,8.45
2024-04-13T03:23:22.670Z,6.57
2024-04-13T03:25:49.694Z,5.85
2024-04-13T03:28:16.676Z,7.68
2024-04-13T03:30:43.670Z,7.80
2024-04-13T03:33:10.663Z,7.05
2024-04-13T03:35:39.272Z,8.40
2024-04-13T03:38:07.845Z,8.05
2024-04-13T03:40:38.335Z,7.28
2024-04-13T03:43:05.428Z,10.05
2024-04-13T03:45:32.615Z,6.72
2024-04-13T03:47:59.804Z,7.63
2024-04-13T03:50:27.123Z,6.50
2024-04-13T03:52:54.102Z,8.05
2024-04-13T03:55:21.039Z,7.15
2024-04-13T03:57:48.590Z,7.47
2024-04-13T04:00:16.051Z,7.38
2024-04-13T04:02:42.997Z,6.15
2024-04-13T04:05:09.962Z,6.78
2024-04-13T04:07:36.901Z,8.38
2024-04-13T04:10:06.336Z,6.10
2024-04-13T04:12:33.452Z,5.97
2024-04-13T04:15:01.356Z,6.75
2024-04-13T04:17:28.334Z,6.97
2024-04-13T04:19:55.365Z,7.60
2024-04-13T04:22:22.289Z,6.65
2024-04-13T04:24:49.266Z,6.18
2024-04-13T04:27:16.297Z,6.53
2024-04-13T04:29:44.339Z,7.70
2024-04-13T04:32:11.547Z,8.70
2024-04-13T04:34:38.502Z,7.70
2024-04-13T04:37:05.648Z,8.95
2024-04-13T04:39:32.758Z,9.27
2024-04-13T04:42:00.639Z,8.68
2024-04-13T04:44:27.587Z,10.25
2024-04-13T04:46:54.840Z,7.95
2024-04-13T04:49:21.922Z,9.00
2024-04-13T04:51:48.907Z,8.30
2024-04-13T04:54:15.899Z,7.45
2024-04-13T04:56:42.879Z,6.97
2024-04-13T04:59:10.888Z,7.70
2024-04-13T05:01:37.840Z,10.80
2024-04-13T05:04:06.259Z,8.30
2024-04-13T05:06:34.565Z,9.65
2024-04-13T05:09:01.535Z,14.02
2024-04-13T05:11:28.522Z,20.60
2024-04-13T05:13:55.508Z,18.40
2024-04-13T05:16:23.574Z,13.30
2024-04-13T05:18:50.634Z,12.10
2024-04-13T05:21:17.689Z,7.68
2024-04-13T05:23:45.068Z,8.57
2024-04-13T05:26:12.021Z,8.35
2024-04-13T05:28:38.958Z,9.45
2024-04-13T05:31:10.643Z,9.05
2024-04-13T05:33:38.021Z,8.35
2024-04-13T05:36:05.765Z,10.02
2024-04-13T05:38:33.062Z,11.43
2024-04-13T05:41:00.729Z,14.23
2024-04-13T05:43:27.658Z,12.35
2024-04-13T05:45:55.092Z,11.63
2024-04-13T05:48:22.946Z,8.82
2024-04-13T05:50:57.670Z,10.57
2024-04-13T05:53:26.842Z,10.75
2024-04-13T05:55:53.826Z,10.15
2024-04-13T05:58:21.214Z,12.60
2024-04-13T06:00:48.911Z,18.63
2024-04-13T06:03:16.337Z,15.93
2024-04-13T06:05:43.894Z,13.90
2024-04-13T06:08:11.358Z,17.20
2024-04-13T06:10:38.475Z,13.98
2024-04-13T06:13:05.641Z,11.57
2024-04-13T06:15:32.655Z,12.75
2024-04-13T06:18:00.258Z,11.48
2024-04-13T06:20:27.250Z,8.57
2024-04-13T06:22:54.204Z,10.35
2024-04-13T06:25:22.236Z,8.48
2024-04-13T06:27:50.744Z,7.82
2024-04-13T06:30:17.895Z,7.47
2024-04-13T06:32:44.973Z,7.72
2024-04-13T06:35:12.142Z,8.43
2024-04-13T06:37:39.107Z,13.05
2024-04-13T06:40:06.600Z,9.07
2024-04-13T06:42:35.381Z,9.45
2024-04-13T06:45:03.004Z,8.43
2024-04-13T06:47:31.593Z,10.40
2024-04-13T06:49:59.775Z,10.15
2024-04-13T06:52:26.845Z,9.35
2024-04-13T06:54:53.816Z,9.55
2024-04-13T06:57:20.875Z,9.98
2024-04-13T06:59:47.876Z,10.15
2024-04-13T07:02:14.813Z,9.32
2024-04-13T07:04:42.072Z,8.60
2024-04-13T07:07:09.188Z,9.70
2024-04-13T07:09:36.205Z,9.35
2024-04-13T07:12:03.997Z,13.40
2024-04-13T07:14:31.754Z,10.57
2024-04-13T07:16:59.019Z,9.38
2024-04-13T07:19:27.149Z,11.15
2024-04-13T07:21:54.372Z,9.10
2024-04-13T07:24:21.352Z,9.20
2024-04-13T07:26:48.287Z,11.77
2024-04-13T07:29:15.273Z,10.05
2024-04-13T07:31:42.233Z,8.38
2024-04-13T07:34:09.213Z,10.65
2024-04-13T07:36:36.202Z,10.38
2024-04-13T07:39:03.195Z,9.57
2024-04-13T07:41:30.198Z,10.27
2024-04-13T07:43:57.181Z,10.77
2024-04-13T07:46:26.297Z,14.80
2024-04-13T07:48:53.453Z,13.40
2024-04-13T07:51:22.118Z,12.07
2024-04-13T07:53:49.106Z,11.20
2024-04-13T07:56:16.406Z,12.52
2024-04-13T07:58:43.697Z,10.85
2024-04-13T08:01:11.227Z,12.30
2024-04-13T08:03:38.398Z,10.90
2024-04-13T08:06:05.683Z,10.88
2024-04-13T08:08:32.648Z,14.57
2024-04-13T08:11:01.422Z,13.07
2024-04-13T08:13:28.644Z,10.02
2024-04-13T08:15:56.261Z,9.27
2024-04-13T08:18:23.308Z,13.27
2024-04-13T08:20:51.454Z,11.10
2024-04-13T08:23:18.391Z,10.55
2024-04-13T08:25:45.514Z,14.80
2024-04-13T08:28:13.506Z,11.82
2024-04-13T08:30:40.801Z,10.63
2024-04-13T08:33:07.878Z,11.35
2024-04-13T08:35:34.917Z,10.13
2024-04-13T08:38:01.879Z,8.15
2024-04-13T08:40:29.026Z,8.90
2024-04-13T08:42:59.101Z,10.40
2024-04-13T08:45:27.013Z,8.90
2024-04-13T08:47:55.750Z,9.20
2024-04-13T08:50:23.326Z,12.45
2024-04-13T08:52:51.285Z,11.02
2024-04-13T08:55:19.396Z,12.93
2024-04-13T08:57:47.737Z,10.13
2024-04-13T09:00:17.671Z,8.82
2024-04-13T09:02:51.795Z,7.78
2024-04-13T09:05:19.905Z,9.13
2024-04-13T09:07:47.972Z,9.48
2024-04-13T09:10:16.773Z,10.90
2024-04-13T09:12:43.880Z,9.57
2024-04-13T09:15:11.206Z,10.30
2024-04-13T09:17:38.336Z,14.18
2024-04-13T09:20:09.490Z,12.05
2024-04-13T09:22:40.188Z,16.85
2024-04-13T09:25:09.492Z,15.38
2024-04-13T09:27:36.806Z,11.45
2024-04-13T09:30:11.631Z,12.73
2024-04-13T09:32:38.977Z,10.13
2024-04-13T09:35:10.629Z,11.65
2024-04-13T09:37:37.938Z,10.80
2024-04-13T09:40:06.004Z,10.00
2024-04-13T09:42:33.343Z,8.88
2024-04-13T09:45:12.970Z,11.80
2024-04-13T09:47:40.080Z,10.68
2024-04-13T09:50:07.471Z,12.00
2024-04-13T09:52:34.878Z,10.48
2024-04-13T09:55:02.980Z,9.82
2024-04-13T09:57:30.038Z,10.10
2024-04-13T09:59:57.586Z,8.32
2024-04-13T10:02:24.817Z,11.85
2024-04-13T10:04:51.890Z,10.82
2024-04-13T10:07:20.945Z,8.73
2024-04-13T10:09:56.107Z,11.15
2024-04-13T10:12:27.982Z,8.07
2024-04-13T10:14:57.435Z,6.50
2024-04-13T10:17:24.671Z,7.78
2024-04-13T10:19:51.902Z,6.63
2024-04-13T10:22:28.530Z,8.40
2024-04-13T10:25:09.166Z,8.23
2024-04-13T10:27:36.860Z,5.65
2024-04-13T10:30:04.762Z,5.57
2024-04-13T10:32:32.181Z,5.45
2024-04-13T10:35:12.844Z,9.05
2024-04-13T10:37:40.486Z,7.50
2024-04-13T10:40:09.899Z,8.73
2024-04-13T10:42:40.887Z,6.22
2024-04-13T10:45:18.744Z,7.05
2024-04-13T10:47:46.575Z,9.57
2024-04-13T10:50:15.264Z,6.47
2024-04-13T10:52:43.198Z,8.25
2024-04-13T10:55:14.235Z,6.15
2024-04-13T10:57:44.855Z,6.75
2024-04-13T11:00:12.512Z,5.30
2024-04-13T11:02:42.316Z,4.80
2024-04-13T11:05:16.264Z,5.63
2024-04-13T11:07:44.152Z,7.07
2024-04-13T11:10:11.229Z,7.70
2024-04-13T11:12:38.225Z,6.13
2024-04-13T11:15:05.591Z,7.60
2024-04-13T11:17:33.040Z,6.53
2024-04-13T11:20:00.415Z,5.93
2024-04-13T11:22:28.417Z,5.07
2024-04-13T11:24:56.904Z,5.53
2024-04-13T11:27:24.780Z,6.43
2024-04-13T11:29:52.088Z,4.78
2024-04-13T11:32:19.671Z,5.28
2024-04-13T11:34:46.716Z,8.00
2024-04-13T11:37:17.109Z,6.65
2024-04-13T11:39:47.021Z,8.57
2024-04-13T11:42:15.247Z,4.97
2024-04-13T11:44:42.483Z,5.57
2024-04-13T11:47:10.240Z,5.28
2024-04-13T11:49:41.756Z,5.55
2024-04-13T11:52:19.035Z,6.82
2024-04-13T11:54:48.191Z,5.05
2024-04-13T11:57:15.429Z,4.35
2024-04-13T11:59:42.473Z,10.05
2024-04-13T12:02:09.732Z,4.60
2024-04-13T12:04:37.141Z,6.18
2024-04-13T12:07:04.308Z,5.18
2024-04-13T12:09:31.504Z,5.95
2024-04-13T12:12:01.590Z,4.40
2024-04-13T12:14:39.327Z,4.78
2024-04-13T12:17:12.366Z,4.72
2024-04-13T12:19:40.347Z,4.10
2024-04-13T12:22:08.713Z,6.13
2024-04-13T12:24:36.930Z,7.15
2024-04-13T12:27:06.001Z,6.03
2024-04-13T12:29:34.011Z,5.30
2024-04-13T12:32:01.631Z,6.53
2024-04-13T12:34:28.728Z,5.18
2024-04-13T12:36:55.784Z,6.93
2024-04-13T12:39:22.793Z,4.15
2024-04-13T12:41:49.865Z,5.78
2024-04-13T12:44:16.797Z,5.18
2024-04-13T12:46:44.389Z,5.18
2024-04-13T12:49:11.424Z,4.82
2024-04-13T12:51:38.488Z,5.28
2024-04-13T12:54:05.522Z,3.92
2024-04-13T12:56:32.486Z,6.57
2024-04-13T12:58:59.444Z,5.45
2024-04-13T13:01:28.074Z,7.22
2024-04-13T13:03:55.193Z,3.90
2024-04-13T13:06:22.574Z,4.35
2024-04-13T13:08:49.652Z,3.25
2024-04-13T13:11:16.617Z,5.68
2024-04-13T13:13:43.551Z,4.30
2024-04-13T13:16:10.645Z,6.53
2024-04-13T13:18:37.791Z,5.18
2024-04-13T13:21:05.721Z,5.85
2024-04-13T13:23:32.699Z,4.88
2024-04-13T13:25:59.723Z,5.25
2024-04-13T13:28:26.790Z,6.00
2024-04-13T13:30:54.897Z,4.32
2024-04-13T13:33:22.056Z,5.95
2024-04-13T13:35:49.046Z,3.92
2024-04-13T13:38:16.019Z,3.53
2024-04-13T13:40:42.989Z,6.18
2024-04-13T13:43:09.949Z,5.13
2024-04-13T13:45:37.468Z,5.18
2024-04-13T13:48:04.906Z,4.82
2024-04-13T13:50:31.887Z,5.93
2024-04-13T13:52:58.959Z,4.43
2024-04-13T13:55:25.925Z,7.05
2024-04-13T13:57:53.028Z,4.18
2024-04-13T14:00:22.043Z,5.07
2024-04-13T14:02:49.151Z,4.18
2024-04-13T14:05:16.335Z,6.07
2024-04-13T14:07:43.356Z,5.05
2024-04-13T14:10:10.296Z,4.40
2024-04-13T14:12:37.402Z,4.95
2024-04-13T14:15:05.093Z,3.45
2024-04-13T14:17:32.277Z,4.10
2024-04-13T14:19:59.273Z,6.38
2024-04-13T14:22:26.311Z,5.90
2024-04-13T14:24:53.259Z,3.90
2024-04-13T14:27:20.275Z,5.53
2024-04-13T14:29:47.251Z,5.22
2024-04-13T14:32:15.311Z,5.05
2024-04-13T14:34:42.521Z,4.22
2024-04-13T14:37:10.242Z,5.88
2024-04-13T14:39:37.286Z,4.72
2024-04-13T14:42:04.515Z,5.45
2024-04-13T14:44:31.558Z,4.15
2024-04-13T14:46:58.493Z,3.55
2024-04-13T14:49:25.769Z,5.97
2024-04-13T14:51:53.032Z,3.40
2024-04-13T14:54:20.074Z,3.75
2024-04-13T14:56:47.402Z,6.47
2024-04-13T14:59:14.425Z,4.15
2024-04-13T15:01:42.667Z,4.40
2024-04-13T15:04:10.544Z,5.00
2024-04-13T15:06:37.598Z,5.72
2024-04-13T15:09:04.611Z,7.47
2024-04-13T15:11:31.750Z,4.25
2024-04-13T15:13:58.828Z,3.75
2024-04-13T15:16:25.816Z,4.60
2024-04-13T15:18:52.900Z,4.55
2024-04-13T15:21:20.048Z,5.20
2024-04-13T15:23:47.452Z,4.65
2024-04-13T15:26:14.436Z,4.20
2024-04-13T15:28:41.584Z,5.32
2024-04-13T15:31:09.113Z,4.10
2024-04-13T15:33:36.876Z,4.72
2024-04-13T15:36:04.292Z,3.33
2024-04-13T15:38:31.248Z,4.43
2024-04-13T15:40:58.190Z,5.70
2024-04-13T15:43:25.165Z,3.58
2024-04-13T15:45:53.071Z,4.97
2024-04-13T15:48:20.738Z,3.67
2024-04-13T15:50:48.154Z,6.20
2024-04-13T15:53:15.103Z,3.50
2024-04-13T15:55:43.278Z,6.30
2024-04-13T15:58:11.792Z,5.28
2024-04-13T16:00:39.057Z,4.45
2024-04-13T16:03:06.371Z,6.13
2024-04-13T16:05:33.406Z,4.45
2024-04-13T16:08:00.479Z,5.65
2024-04-13T16:10:27.420Z,6.50
2024-04-13T16:12:54.560Z,8.05
2024-04-13T16:15:21.565Z,4.72
2024-04-13T16:17:48.788Z,5.28
2024-04-13T16:20:17.866Z,3.83
2024-04-13T16:22:48.088Z,5.00
2024-04-13T16:25:15.207Z,5.47
2024-04-13T16:27:42.256Z,5.07
2024-04-13T16:30:09.710Z,4.93
2024-04-13T16:32:36.804Z,6.57
2024-04-13T16:35:05.748Z,4.75
2024-04-13T16:37:32.683Z,3.80
2024-04-13T16:40:00.531Z,6.35
2024-04-13T16:42:28.375Z,6.22
2024-04-13T16:44:55.339Z,6.55
2024-04-13T16:47:22.349Z,5.50
2024-04-13T16:49:52.184Z,4.10
2024-04-13T16:52:19.137Z,5.60
2024-04-13T16:54:46.193Z,6.90
2024-04-13T16:57:13.461Z,6.00
2024-04-13T16:59:40.470Z,7.15
2024-04-13T17:02:07.470Z,5.78
2024-04-13T17:04:34.832Z,8.85
2024-04-13T17:07:01.827Z,5.40
2024-04-13T17:09:28.897Z,6.95
2024-04-13T17:11:55.906Z,5.43
2024-04-13T17:14:22.889Z,6.05
2024-04-13T17:16:49.837Z,8.25
2024-04-13T17:19:16.847Z,5.35
2024-04-13T17:21:43.927Z,6.32
2024-04-13T17:24:10.937Z,7.47
2024-04-13T17:26:38.127Z,8.23
2024-04-13T17:29:05.522Z,5.45
2024-04-13T17:31:32.597Z,6.60
2024-04-13T17:33:59.654Z,6.03
2024-04-13T17:36:28.184Z,8.02
2024-04-13T17:38:55.207Z,11.38
2024-04-13T17:41:22.288Z,5.38
2024-04-13T17:43:49.617Z,5.75
2024-04-13T17:46:16.863Z,5.22
2024-04-13T17:48:43.936Z,8.88
2024-04-13T17:51:11.291Z,5.15
2024-04-13T17:53:38.370Z,5.43
2024-04-13T17:56:05.788Z,8.13
2024-04-13T17:58:32.750Z,6.43
2024-04-13T18:00:59.807Z,6.35
2024-04-13T18:03:26.850Z,7.57
2024-04-13T18:05:53.889Z,6.03
2024-04-13T18:08:20.903Z,6.72
2024-04-13T18:10:47.870Z,7.60
2024-04-13T18:13:14.821Z,4.63
2024-04-13T18:15:42.392Z,5.38
2024-04-13T18:18:09.869Z,7.93
2024-04-13T18:20:36.909Z,5.47
2024-04-13T18:23:04.550Z,9.43
2024-04-13T18:25:31.519Z,9.30
2024-04-13T18:27:58.560Z,5.75
2024-04-13T18:30:25.553Z,4.93
2024-04-13T18:32:52.722Z,5.85
2024-04-13T18:35:19.762Z,5.22
2024-04-13T18:37:47.791Z,5.63
2024-04-13T18:40:14.821Z,7.97
2024-04-13T18:42:41.949Z,6.93
2024-04-13T18:45:11.622Z,8.43
2024-04-13T18:47:39.422Z,4.97
2024-04-13T18:50:07.157Z,5.88
2024-04-13T18:52:34.131Z,7.00
2024-04-13T18:55:01.228Z,5.00
2024-04-13T18:57:28.249Z,5.43
2024-04-13T18:59:55.318Z,5.50
2024-04-13T19:02:22.367Z,4.85
2024-04-13T19:04:49.366Z,5.45
2024-04-13T19:07:16.307Z,4.95
2024-04-13T19:09:43.325Z,6.00
2024-04-13T19:12:10.311Z,6.68
2024-04-13T19:14:37.257Z,6.43
2024-04-13T19:17:04.450Z,6.63
2024-04-13T19:19:31.506Z,6.20
2024-04-13T19:21:59.115Z,5.22
2024-04-13T19:24:26.311Z,5.60
2024-04-13T19:26:53.343Z,5.72
2024-04-13T19:29:20.692Z,5.78
2024-04-13T19:31:47.716Z,6.85
2024-04-13T19:34:14.920Z,5.68
2024-04-13T19:36:41.960Z,5.30
2024-04-13T19:39:11.042Z,7.68
2024-04-13T19:41:42.749Z,10.73
2024-04-13T19:44:11.466Z,5.53
2024-04-13T19:46:38.486Z,7.13
2024-04-13T19:49:05.544Z,6.15
2024-04-13T19:51:33.321Z,7.97
2024-04-13T19:54:00.466Z,7.80
2024-04-13T19:56:27.433Z,5.78
2024-04-13T19:58:54.635Z,5.05
2024-04-13T20:01:21.747Z,7.03
2024-04-13T20:03:48.921Z,6.07
2024-04-13T20:06:16.016Z,6.38
2024-04-13T20:08:45.612Z,7.32
2024-04-13T20:11:12.752Z,7.63
2024-04-13T20:13:41.205Z,5.82
2024-04-13T20:16:26.848Z,5.25
2024-04-13T20:18:54.129Z,7.72
2024-04-13T20:21:21.148Z,8.35
2024-04-13T20:23:48.134Z,7.57
2024-04-13T20:26:15.102Z,6.32
2024-04-13T20:28:42.113Z,7.30
2024-04-13T20:31:11.390Z,5.97
2024-04-13T20:33:38.627Z,9.80
2024-04-13T20:36:06.189Z,6.88
2024-04-13T20:38:33.749Z,6.85
2024-04-13T20:41:01.347Z,5.68
2024-04-13T20:43:28.536Z,10.00
2024-04-13T20:45:55.609Z,6.80
2024-04-13T20:48:22.661Z,8.25
2024-04-13T20:50:49.655Z,7.00
2024-04-13T20:53:17.197Z,6.32
2024-04-13T20:55:44.400Z,7.95
2024-04-13T20:58:11.391Z,9.65
2024-04-13T21:00:38.785Z,6.65
2024-04-13T21:03:06.358Z,7.63
2024-04-13T21:05:34.687Z,7.93
2024-04-13T21:08:03.124Z,9.38
2024-04-13T21:10:31.537Z,11.13
2024-04-13T21:12:58.835Z,9.30
2024-04-13T21:15:26.193Z,8.68
2024-04-13T21:17:53.448Z,8.05
2024-04-13T21:20:20.536Z,9.95
2024-04-13T21:22:48.055Z,10.00
2024-04-13T21:25:15.201Z,11.63
2024-04-13T21:27:42.210Z,7.82
2024-04-13T21:30:09.610Z,8.18
2024-04-13T21:32:36.921Z,9.52
2024-04-13T21:35:04.790Z,7.75
2024-04-13T21:37:31.981Z,10.68
2024-04-13T21:39:59.177Z,8.57
2024-04-13T21:42:27.216Z,8.88
2024-04-13T21:44:54.215Z,8.02
2024-04-13T21:47:21.184Z,6.80
2024-04-13T21:49:48.133Z,7.20
2024-04-13T21:52:15.058Z,10.20
2024-04-13T21:54:42.064Z,8.50
2024-04-13T21:57:11.591Z,7.57
2024-04-13T21:59:38.869Z,6.78
2024-04-13T22:02:05.940Z,8.75
2024-04-13T22:04:33.058Z,8.10
2024-04-13T22:07:00.127Z,7.43
2024-04-13T22:09:27.144Z,7.45
2024-04-13T22:11:54.067Z,6.85
2024-04-13T22:14:21.077Z,9.80
2024-04-13T22:16:48.196Z,9.68
2024-04-13T22:19:15.208Z,8.18
2024-04-13T22:21:47.151Z,8.45
2024-04-13T22:24:14.213Z,6.80
2024-04-13T22:26:41.623Z,7.22
2024-04-13T22:29:09.019Z,6.32
2024-04-13T22:31:40.600Z,8.20
2024-04-13T22:34:09.283Z,6.68
2024-04-13T22:36:36.948Z,7.30
2024-04-13T22:39:04.314Z,6.75
2024-04-13T22:41:31.465Z,8.30
2024-04-13T22:43:59.378Z,9.25
2024-04-13T22:46:26.889Z,9.90
2024-04-13T22:48:53.980Z,9.52
2024-04-13T22:51:21.001Z,7.00
2024-04-13T22:53:47.974Z,7.72
2024-04-13T22:56:14.942Z,7.05
2024-04-13T22:58:41.920Z,5.47
2024-04-13T23:01:08.957Z,7.43
2024-04-13T23:03:36.107Z,6.40
2024-04-13T23:06:03.281Z,8.05
2024-04-13T23:08:30.307Z,7.35
2024-04-13T23:10:57.364Z,7.57
2024-04-13T23:13:24.424Z,6.05
2024-04-13T23:15:51.664Z,6.72
2024-04-13T23:18:19.888Z,8.13
2024-04-13T23:20:48.248Z,8.63
2024-04-13T23:23:16.113Z,7.70
2024-04-13T23:25:46.602Z,6.88
2024-04-13T23:28:13.922Z,9.43
2024-04-13T23:30:41.218Z,6.03
2024-04-13T23:33:08.183Z,7.15
2024-04-13T23:35:35.116Z,7.40
2024-04-13T23:38:02.173Z,9.82
2024-04-13T23:40:30.157Z,8.13
2024-04-13T23:42:57.192Z,6.20
2024-04-13T23:45:24.825Z,7.20
2024-04-13T23:47:51.876Z,6.40
2024-04-13T23:50:21.605Z,6.13
2024-04-13T23:52:49.121Z,6.25
2024-04-13T23:55:16.161Z,7.88
2024-04-13T23:57:45.757Z,8.80
